createdAt,value
2018-12-24T00:00:40.535Z,15.75
2018-12-24T00:03:29.937Z,14.03
2018-12-24T00:06:20.577Z,14.85
2018-12-24T00:09:10.827Z,14.63
2018-12-24T00:12:07.032Z,14.75
2018-12-24T00:14:52.535Z,13.80
2018-12-24T00:17:42.737Z,13.50
2018-12-24T00:20:32.477Z,13.32
2018-12-24T00:23:22.574Z,10.65
2018-12-24T00:26:12.187Z,10.48
2018-12-24T00:29:01.987Z,10.55
2018-12-24T00:31:51.534Z,11.60
2018-12-24T00:34:41.757Z,12.00
2018-12-24T00:37:31.600Z,9.70
2018-12-24T00:40:21.197Z,11.28
2018-12-24T00:43:10.604Z,11.00
2018-12-24T00:46:00.567Z,11.85
2018-12-24T00:48:50.488Z,10.35
2018-12-24T00:51:40.327Z,10.60
2018-12-24T00:54:30.357Z,8.93
2018-12-24T00:57:20.474Z,9.10
2018-12-24T01:00:10.637Z,7.62
2018-12-24T01:03:00.457Z,7.42
2018-12-24T01:05:50.075Z,9.20
2018-12-24T01:08:40.007Z,7.00
2018-12-24T01:11:29.646Z,7.15
2018-12-24T01:14:19.568Z,5.40
2018-12-24T01:17:09.324Z,6.30
2018-12-24T01:19:59.327Z,4.85
2018-12-24T01:22:49.064Z,6.30
2018-12-24T01:25:38.987Z,4.83
2018-12-24T01:28:28.635Z,4.55
2018-12-24T01:31:18.448Z,5.85
2018-12-24T01:34:08.307Z,4.45
2018-12-24T01:37:00.553Z,4.62
2018-12-24T01:39:50.196Z,4.95
2018-12-24T01:42:40.157Z,4.65
2018-12-24T01:45:30.268Z,5.10
2018-12-24T01:48:19.906Z,4.47
2018-12-24T01:51:09.648Z,5.65
2018-12-24T01:53:59.710Z,4.87
2018-12-24T01:56:49.475Z,4.72
2018-12-24T01:59:39.540Z,5.92
2018-12-24T02:02:29.468Z,5.78
2018-12-24T02:05:19.511Z,7.45
2018-12-24T02:08:09.335Z,5.53
2018-12-24T02:10:59.015Z,6.75
2018-12-24T02:13:48.927Z,4.72
2018-12-24T02:16:38.616Z,4.00
2018-12-24T02:19:28.344Z,4.25
2018-12-24T02:22:18.265Z,3.65
2018-12-24T02:25:07.873Z,3.45
2018-12-24T02:27:57.847Z,3.08
2018-12-24T02:30:48.107Z,3.20
2018-12-24T02:33:38.407Z,2.58
2018-12-24T02:36:28.247Z,2.75
2018-12-24T02:39:18.268Z,3.17
2018-12-24T02:42:08.427Z,3.02
2018-12-24T02:44:58.347Z,3.00
2018-12-24T02:47:48.197Z,2.60
2018-12-24T02:50:38.096Z,2.17
2018-12-24T02:53:28.134Z,3.05
2018-12-24T02:56:19.307Z,3.17
2018-12-24T02:59:10.278Z,3.65
2018-12-24T03:01:59.532Z,3.60
2018-12-24T03:04:49.430Z,2.80
2018-12-24T03:07:39.666Z,3.55
2018-12-24T03:10:29.422Z,3.17
2018-12-24T03:13:19.086Z,2.77
2018-12-24T03:16:08.959Z,2.87
2018-12-24T03:18:58.885Z,4.03
2018-12-24T03:21:48.927Z,3.70
2018-12-24T03:24:39.006Z,3.75
2018-12-24T03:27:32.147Z,3.22
2018-12-24T03:30:22.057Z,3.85
2018-12-24T03:33:12.228Z,3.72
2018-12-24T03:36:02.421Z,3.87
2018-12-24T03:38:52.606Z,4.20
2018-12-24T03:41:42.976Z,4.30
2018-12-24T03:44:32.778Z,3.87
2018-12-24T03:47:23.133Z,4.67
2018-12-24T03:50:13.048Z,4.25
2018-12-24T03:53:02.856Z,4.10
2018-12-24T03:55:52.725Z,4.17
2018-12-24T03:58:42.755Z,4.25
2018-12-24T04:01:32.695Z,4.35
2018-12-24T04:04:22.807Z,3.25
2018-12-24T04:07:12.689Z,3.62
2018-12-24T04:10:03.105Z,3.52
2018-12-24T04:12:53.137Z,3.67
2018-12-24T04:15:43.385Z,4.50
2018-12-24T04:18:33.461Z,4.17
2018-12-24T04:21:23.526Z,5.20
2018-12-24T04:24:13.324Z,4.20
2018-12-24T04:27:03.649Z,4.42
2018-12-24T04:29:53.735Z,3.75
2018-12-24T04:32:44.004Z,5.28
2018-12-24T04:35:33.834Z,5.30
2018-12-24T04:38:23.809Z,3.87
2018-12-24T04:41:13.312Z,4.75
2018-12-24T04:44:03.026Z,4.42
2018-12-24T04:46:52.836Z,5.08
2018-12-24T04:49:42.662Z,5.15
2018-12-24T04:52:32.729Z,4.22
2018-12-24T04:55:22.589Z,5.15
2018-12-24T04:58:12.927Z,4.60
2018-12-24T05:01:03.144Z,4.37
2018-12-24T05:03:53.179Z,5.28
2018-12-24T05:06:43.266Z,5.42
2018-12-24T05:09:33.147Z,6.03
2018-12-24T05:12:23.157Z,5.72
2018-12-24T05:15:13.004Z,6.60
2018-12-24T05:18:02.784Z,5.33
2018-12-24T05:20:52.884Z,6.00
2018-12-24T05:23:43.284Z,6.35
2018-12-24T05:26:33.026Z,6.37
2018-12-24T05:29:22.665Z,5.15
2018-12-24T05:32:12.574Z,6.20
2018-12-24T05:35:02.404Z,7.15
2018-12-24T05:37:52.244Z,5.80
2018-12-24T05:40:42.318Z,6.50
2018-12-24T05:43:32.348Z,6.62
2018-12-24T05:46:22.434Z,5.33
2018-12-24T05:49:12.295Z,6.47
2018-12-24T05:52:02.418Z,5.50
2018-12-24T05:54:52.653Z,6.55
2018-12-24T05:57:42.465Z,8.08
2018-12-24T06:00:32.352Z,7.40
2018-12-24T06:03:22.256Z,6.08
2018-12-24T06:06:11.798Z,6.80
2018-12-24T06:09:01.818Z,6.83
2018-12-24T06:11:51.565Z,6.67
2018-12-24T06:14:41.667Z,6.15
2018-12-24T06:17:31.722Z,7.35
2018-12-24T06:20:21.955Z,7.80
2018-12-24T06:23:11.727Z,6.42
2018-12-24T06:26:01.615Z,7.87
2018-12-24T06:28:51.189Z,7.58
2018-12-24T06:31:41.045Z,7.12
2018-12-24T06:34:31.055Z,8.25
2018-12-24T06:37:21.065Z,8.23
2018-12-24T06:40:11.306Z,7.53
2018-12-24T06:43:01.268Z,8.75
2018-12-24T06:45:51.275Z,8.28
2018-12-24T06:48:41.189Z,8.60
2018-12-24T06:51:31.069Z,9.13
2018-12-24T06:54:20.730Z,9.23
2018-12-24T06:57:10.529Z,8.23
2018-12-24T07:00:00.565Z,7.92
2018-12-24T07:02:50.797Z,9.90
2018-12-24T07:05:40.716Z,9.05
2018-12-24T07:08:30.567Z,10.80
2018-12-24T07:11:20.718Z,10.03
2018-12-24T07:14:15.344Z,9.13
2018-12-24T07:17:02.115Z,8.65
2018-12-24T07:19:52.425Z,8.70
2018-12-24T07:22:42.609Z,8.55
2018-12-24T07:25:32.706Z,9.48
2018-12-24T07:28:22.759Z,9.05
2018-12-24T07:31:12.407Z,9.13
2018-12-24T07:34:02.321Z,10.20
2018-12-24T07:36:52.446Z,10.25
2018-12-24T07:39:42.209Z,9.03
2018-12-24T07:42:31.957Z,8.50
2018-12-24T07:45:21.831Z,10.00
2018-12-24T07:48:11.546Z,10.30
2018-12-24T07:51:01.455Z,10.23
2018-12-24T07:53:51.348Z,10.10
2018-12-24T07:56:41.505Z,11.15
2018-12-24T07:59:31.386Z,11.28
2018-12-24T08:02:21.465Z,11.30
2018-12-24T08:05:11.689Z,9.43
2018-12-24T08:08:01.847Z,9.53
2018-12-24T08:10:51.640Z,10.38
2018-12-24T08:13:41.827Z,10.32
2018-12-24T08:16:31.828Z,10.70
2018-12-24T08:19:21.588Z,9.80
2018-12-24T08:22:11.275Z,10.98
2018-12-24T08:25:01.516Z,10.58
2018-12-24T08:27:51.717Z,10.50
2018-12-24T08:30:44.587Z,9.68
2018-12-24T08:33:34.448Z,10.45
2018-12-24T08:36:24.314Z,10.60
2018-12-24T08:39:13.844Z,10.88
2018-12-24T08:42:04.298Z,11.43
2018-12-24T08:44:54.305Z,9.90
2018-12-24T08:47:44.385Z,10.50
2018-12-24T08:50:34.306Z,9.98
2018-12-24T08:53:24.044Z,9.60
2018-12-24T08:56:14.255Z,10.55
2018-12-24T08:59:04.460Z,12.82
2018-12-24T09:01:54.105Z,9.30
2018-12-24T09:04:43.973Z,10.30
2018-12-24T09:07:33.715Z,11.00
2018-12-24T09:10:23.545Z,9.55
2018-12-24T09:13:13.717Z,19.40
2018-12-24T09:16:03.565Z,16.00
2018-12-24T09:18:53.785Z,10.23
2018-12-24T09:21:44.156Z,9.95
2018-12-24T09:24:33.947Z,9.68
2018-12-24T09:27:23.634Z,9.05
2018-12-24T09:30:16.415Z,8.00
2018-12-24T09:33:06.418Z,8.53
2018-12-24T09:35:56.190Z,8.60
2018-12-24T09:38:46.189Z,10.43
2018-12-24T09:41:36.146Z,10.23
2018-12-24T09:44:26.374Z,7.25
2018-12-24T09:47:16.314Z,8.68
2018-12-24T09:50:09.168Z,9.50
2018-12-24T09:52:59.316Z,7.58
2018-12-24T09:55:49.536Z,7.83
2018-12-24T09:58:39.394Z,7.05
2018-12-24T10:01:28.999Z,6.97
2018-12-24T10:04:39.228Z,9.65
2018-12-24T10:07:37.060Z,8.75
2018-12-24T10:10:27.917Z,8.10
2018-12-24T10:13:17.905Z,7.97
2018-12-24T10:16:07.773Z,7.75
2018-12-24T10:18:57.907Z,7.10
2018-12-24T10:21:47.969Z,6.58
2018-12-24T10:24:38.019Z,7.90
2018-12-24T10:27:27.765Z,7.10
2018-12-24T10:30:17.510Z,6.03
2018-12-24T10:33:07.278Z,6.25
2018-12-24T10:35:57.742Z,6.42
2018-12-24T10:38:47.865Z,7.10
2018-12-24T10:41:39.009Z,6.70
2018-12-24T10:44:28.845Z,6.33
2018-12-24T10:47:18.561Z,6.42
2018-12-24T10:50:08.610Z,5.80
2018-12-24T10:52:58.349Z,6.55
2018-12-24T10:55:48.155Z,6.28
2018-12-24T10:58:39.894Z,5.95
2018-12-24T11:01:29.918Z,7.15
2018-12-24T11:04:19.687Z,6.58
2018-12-24T11:07:09.225Z,5.53
2018-12-24T11:10:00.339Z,5.87
2018-12-24T11:12:50.536Z,5.65
2018-12-24T11:15:40.749Z,5.90
2018-12-24T11:18:30.645Z,5.45
2018-12-24T11:21:20.438Z,7.10
2018-12-24T11:24:12.417Z,5.25
2018-12-24T11:27:02.553Z,5.47
2018-12-24T11:29:52.715Z,4.55
2018-12-24T11:32:42.318Z,5.47
2018-12-24T11:35:32.258Z,5.05
2018-12-24T11:38:21.972Z,5.10
2018-12-24T11:41:11.918Z,5.40
2018-12-24T11:44:22.218Z,4.80
2018-12-24T11:47:13.075Z,5.20
2018-12-24T11:50:03.279Z,5.25
2018-12-24T11:52:53.311Z,6.50
2018-12-24T11:55:43.178Z,4.90
2018-12-24T11:58:33.068Z,3.90
2018-12-24T12:01:23.537Z,9.50
2018-12-24T12:04:13.517Z,7.10
2018-12-24T12:07:03.517Z,5.15
2018-12-24T12:09:53.475Z,5.35
2018-12-24T12:12:43.155Z,4.17
2018-12-24T12:15:33.508Z,4.60
2018-12-24T12:18:24.554Z,3.85
2018-12-24T12:21:14.726Z,4.83
2018-12-24T12:24:04.645Z,6.50
2018-12-24T12:26:55.131Z,4.22
2018-12-24T12:29:44.918Z,4.83
2018-12-24T12:32:35.921Z,4.55
2018-12-24T12:35:26.586Z,3.90
2018-12-24T12:38:16.608Z,4.70
2018-12-24T12:41:06.828Z,5.67
2018-12-24T12:43:56.690Z,5.40
2018-12-24T12:46:46.586Z,4.30
2018-12-24T12:49:36.586Z,4.47
2018-12-24T12:52:28.500Z,3.75
2018-12-24T12:55:19.045Z,4.42
2018-12-24T12:58:15.054Z,4.45
2018-12-24T13:01:06.611Z,4.90
2018-12-24T13:03:56.165Z,4.75
2018-12-24T13:06:46.116Z,4.30
2018-12-24T13:09:35.728Z,4.08
2018-12-24T13:12:26.041Z,3.55
2018-12-24T13:15:15.991Z,4.40
2018-12-24T13:18:06.085Z,4.72
2018-12-24T13:20:55.904Z,4.17
2018-12-24T13:23:49.532Z,4.30
2018-12-24T13:26:39.998Z,4.37
2018-12-24T13:29:30.278Z,4.50
2018-12-24T13:32:20.686Z,4.92
2018-12-24T13:35:10.535Z,4.28
2018-12-24T13:38:00.751Z,4.05
2018-12-24T13:40:50.848Z,4.28
2018-12-24T13:43:40.821Z,4.65
2018-12-24T13:46:30.808Z,4.53
2018-12-24T13:49:20.668Z,5.03
2018-12-24T13:52:30.164Z,4.33
2018-12-24T13:55:19.903Z,3.98
2018-12-24T13:58:09.528Z,3.35
2018-12-24T14:00:59.424Z,2.90
2018-12-24T14:03:49.375Z,3.50
2018-12-24T14:06:39.438Z,3.35
2018-12-24T14:09:32.297Z,3.60
2018-12-24T14:12:22.425Z,3.62
2018-12-24T14:15:12.605Z,4.22
2018-12-24T14:18:03.131Z,3.05
2018-12-24T14:20:52.714Z,3.40
2018-12-24T14:23:42.518Z,4.20
2018-12-24T14:26:35.958Z,4.03
2018-12-24T14:29:25.974Z,3.40
2018-12-24T14:32:22.489Z,3.22
2018-12-24T14:35:12.059Z,3.35
2018-12-24T14:38:02.509Z,3.22
2018-12-24T14:40:52.635Z,3.50
2018-12-24T14:43:42.486Z,3.20
2018-12-24T14:46:32.575Z,3.77
2018-12-24T14:49:22.257Z,2.85
2018-12-24T14:52:13.083Z,3.62
2018-12-24T14:55:03.069Z,2.40
2018-12-24T14:57:52.849Z,1.95
2018-12-24T15:00:42.498Z,1.80
2018-12-24T15:03:32.398Z,2.37
2018-12-24T15:06:22.236Z,2.17
2018-12-24T15:09:12.478Z,2.62
2018-12-24T15:12:02.238Z,2.80
2018-12-24T15:14:52.139Z,1.80
2018-12-24T15:17:41.865Z,3.50
2018-12-24T15:20:31.876Z,8.98
2018-12-24T15:23:21.897Z,14.80
2018-12-24T15:26:11.805Z,5.25
2018-12-24T15:29:01.499Z,2.37
2018-12-24T15:31:51.318Z,1.62
2018-12-24T15:34:42.165Z,2.83
2018-12-24T15:37:32.425Z,2.15
2018-12-24T15:40:25.355Z,1.98
2018-12-24T15:43:15.182Z,2.10
2018-12-24T15:46:04.694Z,1.92
2018-12-24T15:48:54.468Z,2.35
2018-12-24T15:51:45.301Z,2.40
2018-12-24T15:54:35.088Z,2.20
2018-12-24T15:57:28.561Z,2.45
2018-12-24T16:00:18.705Z,1.60
2018-12-24T16:03:08.485Z,2.52
2018-12-24T16:05:58.575Z,1.67
2018-12-24T16:08:48.346Z,2.60
2018-12-24T16:11:38.487Z,2.12
2018-12-24T16:14:28.571Z,2.12
2018-12-24T16:17:18.548Z,2.30
2018-12-24T16:20:08.224Z,2.60
2018-12-24T16:22:57.838Z,2.12
2018-12-24T16:25:47.988Z,2.40
2018-12-24T16:28:37.949Z,1.95
2018-12-24T16:31:28.048Z,2.33
2018-12-24T16:34:18.048Z,2.08
2018-12-24T16:37:08.029Z,1.95
2018-12-24T16:39:58.108Z,2.85
2018-12-24T16:42:47.668Z,2.90
2018-12-24T16:45:37.568Z,2.25
2018-12-24T16:48:27.706Z,1.90
2018-12-24T16:51:17.470Z,2.00
2018-12-24T16:54:07.195Z,1.98
2018-12-24T16:56:56.709Z,2.15
2018-12-24T16:59:46.645Z,2.90
2018-12-24T17:02:36.847Z,2.42
2018-12-24T17:05:26.705Z,1.82
2018-12-24T17:08:16.759Z,3.02
2018-12-24T17:11:07.209Z,3.40
2018-12-24T17:13:57.128Z,4.97
2018-12-24T17:16:47.676Z,2.50
2018-12-24T17:19:37.605Z,3.50
2018-12-24T17:22:27.323Z,2.85
2018-12-24T17:25:17.569Z,1.85
2018-12-24T17:28:08.649Z,2.45
2018-12-24T17:30:58.436Z,3.40
2018-12-24T17:33:47.765Z,2.85
2018-12-24T17:36:38.095Z,3.77
2018-12-24T17:39:27.932Z,5.12
2018-12-24T17:42:17.829Z,5.80
2018-12-24T17:45:07.824Z,3.80
2018-12-24T17:47:57.745Z,3.90
2018-12-24T17:50:47.655Z,5.50
2018-12-24T17:53:37.870Z,5.67
2018-12-24T17:56:27.667Z,3.17
2018-12-24T17:59:17.818Z,5.50
2018-12-24T18:02:07.526Z,3.17
2018-12-24T18:04:57.296Z,3.70
2018-12-24T18:07:47.386Z,3.10
2018-12-24T18:10:37.486Z,2.60
2018-12-24T18:13:28.527Z,2.87
2018-12-24T18:16:18.418Z,4.40
2018-12-24T18:19:08.356Z,3.10
2018-12-24T18:21:58.469Z,3.08
2018-12-24T18:24:47.919Z,3.25
2018-12-24T18:27:38.011Z,2.50
2018-12-24T18:30:27.829Z,9.40
2018-12-24T18:33:17.558Z,4.72
2018-12-24T18:36:07.668Z,5.50
2018-12-24T18:38:57.134Z,2.70
2018-12-24T18:42:06.487Z,3.50
2018-12-24T18:44:56.593Z,3.60
2018-12-24T18:47:46.756Z,4.75
2018-12-24T18:50:37.209Z,3.60
2018-12-24T18:53:27.064Z,2.58
2018-12-24T18:56:17.538Z,2.60
2018-12-24T18:59:07.639Z,2.95
2018-12-24T19:01:57.592Z,3.02
2018-12-24T19:04:47.518Z,2.98
2018-12-24T19:07:37.649Z,2.20
2018-12-24T19:10:28.579Z,1.62
2018-12-24T19:13:18.857Z,2.80
2018-12-24T19:16:08.964Z,1.92
2018-12-24T19:18:58.560Z,2.52
2018-12-24T19:21:48.494Z,2.00
2018-12-24T19:24:38.563Z,1.60
2018-12-24T19:27:28.679Z,2.05
2018-12-24T19:30:29.378Z,2.20
2018-12-24T19:33:19.487Z,1.67
2018-12-24T19:36:09.644Z,1.65
2018-12-24T19:38:59.835Z,2.10
2018-12-24T19:41:49.951Z,1.80
2018-12-24T19:44:41.067Z,2.77
2018-12-24T19:47:31.444Z,2.52
2018-12-24T19:50:21.774Z,2.35
2018-12-24T19:53:11.844Z,2.10
2018-12-24T19:56:02.048Z,2.90
2018-12-24T19:58:51.888Z,2.05
2018-12-24T20:01:41.799Z,2.25
2018-12-24T20:04:32.338Z,2.75
2018-12-24T20:07:22.358Z,2.85
2018-12-24T20:10:12.564Z,2.25
2018-12-24T20:13:02.150Z,1.70
2018-12-24T20:15:51.985Z,1.80
2018-12-24T20:18:42.208Z,2.40
2018-12-24T20:21:32.997Z,2.37
2018-12-24T20:24:22.689Z,2.58
2018-12-24T20:27:12.325Z,3.22
2018-12-24T20:30:02.646Z,1.87
2018-12-24T20:32:52.601Z,2.02
2018-12-24T20:35:42.727Z,2.27
2018-12-24T20:38:37.239Z,2.50
2018-12-24T20:41:25.689Z,1.95
2018-12-24T20:44:15.704Z,2.22
2018-12-24T20:47:05.207Z,2.80
2018-12-24T20:49:55.241Z,2.40
2018-12-24T20:52:45.458Z,2.40
2018-12-24T20:55:35.679Z,2.35
2018-12-24T20:58:25.491Z,2.55
2018-12-24T21:01:15.277Z,2.65
2018-12-24T21:04:05.009Z,3.25
2018-12-24T21:06:54.556Z,2.58
2018-12-24T21:09:44.766Z,2.15
2018-12-24T21:12:34.962Z,3.65
2018-12-24T21:15:25.286Z,1.75
2018-12-24T21:18:15.375Z,3.15
2018-12-24T21:21:29.058Z,3.92
2018-12-24T21:24:19.252Z,3.37
2018-12-24T21:27:10.280Z,3.65
2018-12-24T21:30:00.286Z,2.70
2018-12-24T21:32:50.524Z,2.45
2018-12-24T21:35:40.620Z,2.33
2018-12-24T21:38:30.940Z,2.72
2018-12-24T21:41:21.267Z,3.80
2018-12-24T21:44:11.226Z,2.45
2018-12-24T21:47:01.097Z,2.15
2018-12-24T21:49:50.936Z,2.17
2018-12-24T21:52:40.859Z,2.80
2018-12-24T21:55:31.160Z,2.25
2018-12-24T21:58:24.230Z,2.77
2018-12-24T22:01:14.189Z,2.05
2018-12-24T22:04:24.862Z,2.00
2018-12-24T22:07:14.635Z,1.95
2018-12-24T22:10:04.569Z,1.65
2018-12-24T22:12:54.518Z,1.98
2018-12-24T22:15:44.825Z,2.47
2018-12-24T22:18:34.885Z,2.05
2018-12-24T22:21:24.928Z,1.75
2018-12-24T22:24:16.195Z,2.35
2018-12-24T22:27:07.393Z,2.00
2018-12-24T22:29:57.278Z,3.15
2018-12-24T22:32:48.354Z,2.65
2018-12-24T22:35:38.686Z,2.10
2018-12-24T22:38:29.715Z,2.02
2018-12-24T22:41:19.585Z,2.70
2018-12-24T22:44:09.714Z,2.00
2018-12-24T22:47:00.088Z,1.35
2018-12-24T22:49:52.228Z,1.85
2018-12-24T22:52:41.995Z,1.32
2018-12-24T22:55:31.965Z,1.50
2018-12-24T22:58:21.990Z,1.40
2018-12-24T23:01:12.118Z,1.70
2018-12-24T23:04:02.157Z,1.67
2018-12-24T23:06:52.055Z,1.45
2018-12-24T23:09:42.279Z,1.27
2018-12-24T23:12:31.585Z,1.20
2018-12-24T23:15:22.025Z,1.50
2018-12-24T23:18:11.703Z,0.95
2018-12-24T23:21:01.636Z,2.70
2018-12-24T23:23:51.609Z,1.50
2018-12-24T23:26:41.669Z,1.90
2018-12-24T23:29:32.032Z,2.50
2018-12-24T23:32:21.678Z,1.55
2018-12-24T23:35:11.955Z,1.65
2018-12-24T23:38:02.397Z,1.50
2018-12-24T23:40:52.369Z,1.42
2018-12-24T23:43:42.288Z,1.42
2018-12-24T23:46:32.107Z,1.70
2018-12-24T23:49:21.937Z,1.70
2018-12-24T23:52:12.204Z,2.25
2018-12-24T23:55:02.303Z,1.80
2018-12-24T23:57:52.669Z,2.00
